Time;durP1;ratioP1;P1;durP2;ratioP2;P2;SDS_P1;SDS_P2;PMS_P1;PMS_P2;Temp;Humidity;BMP_temperature;BMP_pressure;BME280_temperature;BME280_humidity;BME280_pressure;Samples;Min_cycle;Max_cycle;Signal;HPM_P1;HPM_P2
2021/07/15 00:02:27;;;;;;;;;;;;;;;24.74;58.39;101293.31;5089500;28;659;-67
2021/07/15 00:05:13;;;;;;;;;;;;;;;24.74;58.92;101288.84;5090691;28;1910;-67
2021/07/15 00:07:59;;;;;;;;;;;;;;;24.77;57.95;101285.97;5090564;28;1260;-68
2021/07/15 00:10:55;;;;;;;;;;;;;;;24.76;58.09;101291.38;5090459;28;1151;-66
2021/07/15 00:13:40;;;;;;;;;;;;;;;24.76;57.94;101289.59;5090549;28;1256;-66
2021/07/15 00:16:25;;;;;;;;;;;;;;;24.76;58.82;101286.91;5089357;28;643;-67
2021/07/15 00:19:14;;;;;;;;;;;;;;;24.76;58.21;101280.72;5090584;28;1333;-67
2021/07/15 00:22:00;;;;;;;;;;;;;;;24.75;58.26;101284.34;5090167;28;676;-68
2021/07/15 00:24:45;;;;;;;;;;;;;;;24.73;57.89;101271.16;5090151;28;1890;-67
2021/07/15 00:27:30;;;;;;;;;;;;;;;24.76;57.64;101278.06;5090065;28;909;-67
2021/07/15 00:30:16;;;;;;;;;;;;;;;24.75;57.71;101284.34;5090152;28;1389;-67
2021/07/15 00:33:01;;;;;;;;;;;;;;;24.73;57.86;101283.63;5089921;28;1313;-66
2021/07/15 00:35:47;;;;;;;;;;;;;;;24.73;57.93;101279.16;5089144;28;1128;-66
2021/07/15 00:38:32;;;;;;;;;;;;;;;24.75;58.00;101276.34;5089161;28;1328;-67
2021/07/15 00:41:17;;;;;;;;;;;;;;;24.73;58.03;101268.50;5090520;28;933;-66
2021/07/15 00:44:03;;;;;;;;;;;;;;;24.70;58.50;101276.72;5089750;28;1906;-68
2021/07/15 00:46:48;;;;;;;;;;;;;;;24.75;57.68;101273.69;5089918;28;667;-67
2021/07/15 00:49:34;;;;;;;;;;;;;;;24.77;57.51;101269.13;5089638;28;1359;-67
2021/07/15 00:52:19;;;;;;;;;;;;;;;24.76;57.50;101264.75;5089979;28;711;-68
2021/07/15 00:55:06;;;;;;;;;;;;;;;24.76;57.39;101264.75;5089994;28;1377;-68
2021/07/15 00:57:52;;;;;;;;;;;;;;;24.76;57.17;101265.59;5090013;28;1282;-67
2021/07/15 01:00:38;;;;;;;;;;;;;;;24.75;57.57;101255.03;5089796;28;993;-67
2021/07/15 01:03:23;;;;;;;;;;;;;;;24.75;57.09;101258.56;5089553;28;1310;-67
2021/07/15 01:06:09;;;;;;;;;;;;;;;24.76;57.51;101248.75;5089867;28;1078;-67
2021/07/15 01:08:54;;;;;;;;;;;;;;;24.73;57.71;101249.00;5089564;28;1319;-67
2021/07/15 01:11:44;;;;;;;;;;;;;;;24.71;57.87;101251.78;5089636;28;639;-67
2021/07/15 01:14:33;;;;;;;;;;;;;;;24.68;58.02;101244.03;5089581;28;1318;-67
2021/07/15 01:17:21;;;;;;;;;;;;;;;24.68;57.75;101243.16;5089343;28;676;-67
2021/07/15 01:20:22;;;;;;;;;;;;;;;24.71;57.52;101237.59;5089655;28;1402;-67
2021/07/15 01:23:15;;;;;;;;;;;;;;;24.67;57.86;101238.78;5089110;28;1220;-67
2021/07/15 01:26:06;;;;;;;;;;;;;;;24.73;57.19;101238.34;5089573;28;1972;-68
2021/07/15 01:29:00;;;;;;;;;;;;;;;24.74;57.23;101232.06;5087677;28;1259;-69
2021/07/15 01:31:49;;;;;;;;;;;;;;;24.75;56.84;101229.25;5088996;28;707;-68
2021/07/15 01:34:37;;;;;;;;;;;;;;;24.76;57.04;101235.44;5087613;28;1319;-68
2021/07/15 01:37:23;;;;;;;;;;;;;;;24.74;57.02;101230.25;5088711;28;726;-68
2021/07/15 01:40:09;;;;;;;;;;;;;;;24.76;57.35;101230.97;5088800;28;1363;-68
2021/07/15 01:42:58;;;;;;;;;;;;;;;24.77;57.12;101230.00;5087146;28;1472;-68
2021/07/15 01:45:44;;;;;;;;;;;;;;;24.74;57.39;101229.38;5088396;28;1965;-68
2021/07/15 01:48:29;;;;;;;;;;;;;;;24.74;57.17;101232.06;5088352;28;1294;-68
2021/07/15 01:51:15;;;;;;;;;;;;;;;24.72;57.27;101228.63;5088115;28;1044;-68
2021/07/15 01:54:01;;;;;;;;;;;;;;;24.73;57.19;101227.69;5088157;28;1272;-68
2021/07/15 01:56:47;;;;;;;;;;;;;;;24.75;56.85;101231.91;5088265;28;701;-68
2021/07/15 01:59:33;;;;;;;;;;;;;;;24.73;56.98;101228.53;5088600;28;1321;-68
2021/07/15 02:02:20;;;;;;;;;;;;;;;24.72;57.25;101226.81;5088430;28;1034;-68
2021/07/15 02:05:09;;;;;;;;;;;;;;;24.67;57.92;101222.81;5086757;28;2001;-68
2021/07/15 02:07:56;;;;;;;;;;;;;;;24.71;57.26;101222.47;5088540;28;1373;-68
2021/07/15 02:10:42;;;;;;;;;;;;;;;24.74;57.13;101219.59;5088810;28;1167;-70
2021/07/15 02:13:27;;;;;;;;;;;;;;;24.74;57.16;101221.41;5088348;28;1286;-70
2021/07/15 02:16:14;;;;;;;;;;;;;;;24.73;57.16;101222.34;5087364;28;1085;-68
2021/07/15 02:19:00;;;;;;;;;;;;;;;24.72;57.11;101221.50;5088430;28;1204;-69
2021/07/15 02:21:46;;;;;;;;;;;;;;;24.71;56.95;101221.63;5088086;28;665;-69
2021/07/15 02:24:32;;;;;;;;;;;;;;;24.73;56.53;101222.34;5087515;28;1979;-69
2021/07/15 02:27:18;;;;;;;;;;;;;;;24.71;56.52;101222.47;5088133;28;698;-68
2021/07/15 02:30:08;;;;;;;;;;;;;;;24.71;56.23;101216.28;5088197;28;1245;-68
2021/07/15 02:33:02;;;;;;;;;;;;;;;24.71;56.05;101221.63;5086370;28;1299;-67
2021/07/15 02:35:49;;;;;;;;;;;;;;;24.70;55.68;101222.56;5088185;28;1136;-67
2021/07/15 02:38:34;;;;;;;;;;;;;;;24.71;55.28;101224.28;5086719;28;1402;-68
2021/07/15 02:41:20;;;;;;;;;;;;;;;24.68;55.20;101220.03;5088413;28;929;-68
2021/07/15 02:44:05;;;;;;;;;;;;;;;24.68;54.91;101220.03;5087536;28;1894;-69
2021/07/15 02:46:51;;;;;;;;;;;;;;;24.69;54.74;101221.72;5087949;28;573;-68
2021/07/15 02:49:44;;;;;;;;;;;;;;;24.67;54.67;101218.34;5087569;28;1259;-68
2021/07/15 02:52:29;;;;;;;;;;;;;;;24.66;54.87;101229.09;5087867;28;671;-68
2021/07/15 02:55:14;;;;;;;;;;;;;;;24.65;54.69;101230.94;5087867;28;1278;-68
2021/07/15 02:58:14;;;;;;;;;;;;;;;24.66;54.71;101226.44;5087786;28;1291;-68
2021/07/15 03:01:01;;;;;;;;;;;;;;;24.64;54.52;101229.22;5088039;28;979;-68
2021/07/15 03:03:49;;;;;;;;;;;;;;;24.63;54.44;101221.31;5086488;28;1307;-68
2021/07/15 03:06:39;;;;;;;;;;;;;;;24.64;54.60;101223.03;5091496;28;675;-68
2021/07/15 03:09:26;;;;;;;;;;;;;;;24.63;54.66;101221.31;5091672;28;1247;-68
2021/07/15 03:12:14;;;;;;;;;;;;;;;24.63;54.39;101230.16;5091731;28;760;-68
2021/07/15 03:15:00;;;;;;;;;;;;;;;24.64;54.53;101228.38;5091495;28;1330;-68
2021/07/15 03:17:47;;;;;;;;;;;;;;;24.62;54.30;101227.63;5091320;28;664;-68
2021/07/15 03:20:34;;;;;;;;;;;;;;;24.64;54.63;101234.53;5091346;28;1067;-67
2021/07/15 03:23:21;;;;;;;;;;;;;;;24.65;55.43;101230.94;5090961;28;1281;-67
2021/07/15 03:26:07;;;;;;;;;;;;;;;24.64;56.23;101233.69;5089595;28;1875;-67
2021/07/15 03:28:53;;;;;;;;;;;;;;;24.61;56.48;101226.78;5091082;28;1286;-68
2021/07/15 03:31:39;;;;;;;;;;;;;;;24.61;56.51;101223.25;5089807;28;572;-68
2021/07/15 03:34:27;;;;;;;;;;;;;;;24.62;56.15;101220.50;5091406;28;1314;-68
2021/07/15 03:37:14;;;;;;;;;;;;;;;24.62;56.22;101219.66;5090068;28;692;-68
2021/07/15 03:40:00;;;;;;;;;;;;;;;24.60;56.44;101224.22;5091112;28;1287;-67
2021/07/15 03:42:45;;;;;;;;;;;;;;;24.62;56.25;101223.16;5091148;28;1164;-67
2021/07/15 03:45:31;;;;;;;;;;;;;;;24.60;56.86;101224.22;5091310;28;1973;-67
2021/07/15 03:48:17;;;;;;;;;;;;;;;24.59;56.89;101228.72;5090865;28;1363;-67
2021/07/15 03:51:04;;;;;;;;;;;;;;;24.60;56.89;101225.06;5090370;28;1098;-65
2021/07/15 03:53:49;;;;;;;;;;;;;;;24.61;56.90;101232.09;5091102;28;1216;-66
2021/07/15 03:56:36;;;;;;;;;;;;;;;24.63;56.81;101229.31;5090844;28;647;-67
2021/07/15 03:59:21;;;;;;;;;;;;;;;24.61;56.70;101229.44;5091078;28;1366;-66
2021/07/15 04:02:08;;;;;;;;;;;;;;;24.61;56.80;101232.09;5089533;28;742;-67
2021/07/15 04:04:54;;;;;;;;;;;;;;;24.62;57.01;101235.63;5090820;28;1910;-67
2021/07/15 04:07:40;;;;;;;;;;;;;;;24.62;56.79;101232.97;5090541;28;720;-67
2021/07/15 04:10:27;;;;;;;;;;;;;;;24.60;56.82;101230.41;5090499;28;1023;-67
2021/07/15 04:13:13;;;;;;;;;;;;;;;24.59;56.72;101225.19;5090206;28;1306;-66
2021/07/15 04:16:15;;;;;;;;;;;;;;;24.59;56.97;101225.19;5090301;28;954;-66
2021/07/15 04:19:02;;;;;;;;;;;;;;;24.59;56.99;101230.53;5090171;28;1361;-67
2021/07/15 04:21:47;;;;;;;;;;;;;;;24.60;56.95;101227.72;5090521;28;604;-67
2021/07/15 04:24:34;;;;;;;;;;;;;;;24.59;56.72;101225.19;5090003;28;1902;-67
2021/07/15 04:27:20;;;;;;;;;;;;;;;24.59;56.31;101231.38;5090197;28;628;-68
2021/07/15 04:30:09;;;;;;;;;;;;;;;24.59;56.10;101230.53;5089410;28;1399;-67
2021/07/15 04:33:08;;;;;;;;;;;;;;;24.57;55.75;101237.75;5089136;28;1275;-67
2021/07/15 04:35:55;;;;;;;;;;;;;;;24.58;55.44;101236.81;5090657;28;1100;-67
2021/07/15 04:38:41;;;;;;;;;;;;;;;24.57;55.09;101238.63;5089881;28;1273;-67
2021/07/15 04:41:27;;;;;;;;;;;;;;;24.55;55.03;101232.56;5089438;28;720;-67
2021/07/15 04:44:13;;;;;;;;;;;;;;;24.55;55.10;101235.22;5089643;28;1526;-67
2021/07/15 04:47:00;;;;;;;;;;;;;;;24.57;54.86;101237.75;5088621;28;639;-68
2021/07/15 04:49:45;;;;;;;;;;;;;;;24.55;55.09;101240.56;5089569;28;1247;-68
2021/07/15 04:52:32;;;;;;;;;;;;;;;24.54;54.82;101235.31;5089717;28;703;-67
2021/07/15 04:55:20;;;;;;;;;;;;;;;24.54;54.93;101244.16;5089648;28;928;-68
2021/07/15 04:58:05;;;;;;;;;;;;;;;24.54;54.78;101249.50;5088421;28;1264;-67
2021/07/15 05:00:51;;;;;;;;;;;;;;;24.54;54.45;101249.50;5089402;28;944;-68
2021/07/15 05:03:37;;;;;;;;;;;;;;;24.53;54.46;101252.28;5089263;28;1356;-68
2021/07/15 05:06:23;;;;;;;;;;;;;;;24.53;54.56;101246.97;5089501;28;1979;-68
2021/07/15 05:09:08;;;;;;;;;;;;;;;24.53;54.33;101250.44;5089802;28;1449;-67
2021/07/15 05:11:57;;;;;;;;;;;;;;;24.53;54.29;101249.63;5089500;28;1062;-67
2021/07/15 05:14:43;;;;;;;;;;;;;;;24.52;54.50;101258.56;5089288;28;1252;-67
2021/07/15 05:17:28;;;;;;;;;;;;;;;24.54;54.13;101262.81;5089673;28;1341;-67
2021/07/15 05:20:13;;;;;;;;;;;;;;;24.53;54.20;101262.94;5088979;28;1270;-67
2021/07/15 05:22:58;;;;;;;;;;;;;;;24.52;53.99;101255.91;5089154;28;1270;-67
2021/07/15 05:25:44;;;;;;;;;;;;;;;24.53;54.28;101260.28;5088678;28;1902;-67
2021/07/15 05:28:29;;;;;;;;;;;;;;;24.53;54.01;101263.75;5088294;28;1373;-68
2021/07/15 05:31:14;;;;;;;;;;;;;;;24.52;54.00;101253.25;5088682;28;1126;-67
2021/07/15 05:34:00;;;;;;;;;;;;;;;24.52;54.00;101256.75;5087852;28;1376;-68
2021/07/15 05:36:45;;;;;;;;;;;;;;;24.52;53.97;101253.25;5088905;28;1108;-68
2021/07/15 05:39:31;;;;;;;;;;;;;;;24.53;53.83;101252.28;5087589;28;1282;-68
2021/07/15 05:42:16;;;;;;;;;;;;;;;24.55;53.97;101250.34;5087418;28;1252;-67
2021/07/15 05:45:03;;;;;;;;;;;;;;;24.54;53.82;101249.50;5088774;28;1902;-67
2021/07/15 05:47:48;;;;;;;;;;;;;;;24.51;53.84;101255.03;5088850;28;1078;-68
2021/07/15 05:50:33;;;;;;;;;;;;;;;24.52;53.79;101255.91;5088290;28;608;-69
2021/07/15 05:53:19;;;;;;;;;;;;;;;24.52;53.68;101258.56;5088776;28;1251;-68
2021/07/15 05:56:04;;;;;;;;;;;;;;;24.53;53.57;101252.28;5088651;28;1039;-68
2021/07/15 05:58:49;;;;;;;;;;;;;;;24.53;53.58;101253.09;5088338;28;1271;-68
2021/07/15 06:01:36;;;;;;;;;;;;;;;24.52;53.41;101254.09;5088312;28;1074;-68
2021/07/15 06:04:21;;;;;;;;;;;;;;;24.52;53.36;101242.59;5088345;28;1248;-68
2021/07/15 06:07:07;;;;;;;;;;;;;;;24.52;53.21;101261.22;5087104;28;1910;-68
2021/07/15 06:09:52;;;;;;;;;;;;;;;24.54;53.12;101267.28;5088633;28;1381;-68
2021/07/15 06:12:37;;;;;;;;;;;;;;;24.54;52.93;101269.94;5088704;28;1002;-69
2021/07/15 06:15:23;;;;;;;;;;;;;;;24.51;52.76;101271.03;5087933;28;718;-69
2021/07/15 06:18:08;;;;;;;;;;;;;;;24.53;52.53;101270.94;5088242;28;1338;-68
2021/07/15 06:20:54;;;;;;;;;;;;;;;24.52;52.58;101266.56;5084331;28;1494;-71
2021/07/15 06:23:39;;;;;;;;;;;;;;;24.52;52.43;101271.88;5074992;28;1370;-71
2021/07/15 06:26:24;;;;;;;;;;;;;;;24.53;52.60;101274.41;5066505;28;1961;-71
2021/07/15 06:29:10;;;;;;;;;;;;;;;24.54;52.26;101283.25;5065701;28;1258;-69
2021/07/15 06:31:56;;;;;;;;;;;;;;;24.54;52.22;101280.59;5065224;28;934;-66
2021/07/15 06:34:42;;;;;;;;;;;;;;;24.50;52.17;101271.97;5067884;28;1271;-71
2021/07/15 06:37:32;;;;;;;;;;;;;;;24.48;52.38;101288.09;5066081;28;696;-70
2021/07/15 06:40:17;;;;;;;;;;;;;;;24.51;52.45;101280.81;5068004;28;962;-69
2021/07/15 06:43:03;;;;;;;;;;;;;;;24.50;52.77;101279.13;5068038;28;1303;-70
2021/07/15 06:45:49;;;;;;;;;;;;;;;24.50;52.75;101285.28;5067567;28;1906;-70
2021/07/15 06:48:34;;;;;;;;;;;;;;;24.52;52.84;101282.53;5067102;28;1417;-70
2021/07/15 06:51:21;;;;;;;;;;;;;;;24.51;52.71;101287.00;5067079;28;683;-69
2021/07/15 06:54:06;;;;;;;;;;;;;;;24.51;52.62;101291.47;5066622;28;1254;-69
2021/07/15 06:56:55;;;;;;;;;;;;;;;24.49;52.70;101288.94;5066677;28;616;-69
2021/07/15 06:59:40;;;;;;;;;;;;;;;24.49;52.84;101294.25;5069929;28;1386;-68
2021/07/15 07:02:26;;;;;;;;;;;;;;;24.51;52.98;101294.13;5072483;28;1320;-69
2021/07/15 07:05:12;;;;;;;;;;;;;;;24.52;52.58;101295.84;5076213;28;2007;-69
2021/07/15 07:08:01;;;;;;;;;;;;;;;24.51;52.62;101296.78;5084203;28;1573;-71
2021/07/15 07:10:46;;;;;;;;;;;;;;;24.53;53.06;101300.22;5075862;28;1550;-69
2021/07/15 07:13:32;;;;;;;;;;;;;;;24.54;52.65;101296.56;5071632;28;1391;-67
2021/07/15 07:16:17;;;;;;;;;;;;;;;24.53;52.69;101305.56;5078718;28;1305;-70
2021/07/15 07:19:02;;;;;;;;;;;;;;;24.54;53.10;101297.44;5076778;28;1684;-72
2021/07/15 07:21:47;;;;;;;;;;;;;;;24.55;52.83;101298.28;5073099;28;1343;-71
2021/07/15 07:24:33;;;;;;;;;;;;;;;24.58;52.86;101303.38;5076917;28;1327;-68
2021/07/15 07:27:18;;;;;;;;;;;;;;;24.56;52.42;101300.84;5076236;28;1938;-70
2021/07/15 07:30:04;;;;;;;;;;;;;;;24.56;52.29;101297.34;5105886;28;1358;-68
2021/07/15 07:32:50;;;;;;;;;;;;;;;24.54;52.48;101297.44;5106605;28;671;-68
2021/07/15 07:35:35;;;;;;;;;;;;;;;24.56;52.20;101294.66;5105156;28;608;-69
2021/07/15 07:38:21;;;;;;;;;;;;;;;24.57;52.09;101296.34;5069605;28;1427;-71
2021/07/15 07:41:06;;;;;;;;;;;;;;;24.56;52.09;101294.66;5078890;28;638;-71
2021/07/15 07:43:51;;;;;;;;;;;;;;;24.56;52.10;101289.34;5086415;28;1628;-71
2021/07/15 07:46:37;;;;;;;;;;;;;;;24.61;52.44;101292.50;5084892;28;1969;-72
2021/07/15 07:49:22;;;;;;;;;;;;;;;24.59;52.26;101286.47;5086102;28;1263;-73
2021/07/15 07:52:08;;;;;;;;;;;;;;;24.57;52.39;101293.69;5088879;28;639;-74
2021/07/15 07:54:53;;;;;;;;;;;;;;;24.59;52.12;101291.78;5106196;28;1315;-73
2021/07/15 07:57:39;;;;;;;;;;;;;;;24.60;52.05;101290.81;5098849;28;1021;-69
2021/07/15 08:00:24;;;;;;;;;;;;;;;24.64;52.11;101293.16;5089542;28;668;-69
2021/07/15 08:03:10;;;;;;;;;;;;;;;24.63;52.20;101294.09;5068790;28;1323;-70
2021/07/15 08:05:55;;;;;;;;;;;;;;;24.62;51.96;101287.09;5077404;28;1969;-70
2021/07/15 08:08:41;;;;;;;;;;;;;;;24.62;52.15;101288.91;5089086;28;1268;-69
2021/07/15 08:11:28;;;;;;;;;;;;;;;24.60;52.36;101288.13;5088524;28;747;-70
2021/07/15 08:14:13;;;;;;;;;;;;;;;24.55;52.66;101279.66;5088486;28;1256;-71
2021/07/15 08:16:59;;;;;;;;;;;;;;;24.51;52.73;101284.34;5088349;28;669;-70
2021/07/15 08:19:45;;;;;;;;;;;;;;;24.58;52.24;101277.63;5089745;28;1296;-67
2021/07/15 08:22:30;;;;;;;;;;;;;;;24.60;52.30;101280.16;5088847;28;762;-66
2021/07/15 08:25:19;;;;;;;;;;;;;;;24.60;52.22;101277.47;5089221;28;1287;-68
2021/07/15 08:28:04;;;;;;;;;;;;;;;24.61;52.40;101282.72;5099042;28;1304;-69
2021/07/15 08:30:50;;;;;;;;;;;;;;;24.64;52.38;101270.97;5105462;28;1029;-72
2021/07/15 08:33:35;;;;;;;;;;;;;;;24.70;53.86;101276.72;5088669;28;1433;-70
2021/07/15 08:36:21;;;;;;;;;;;;;;;24.73;55.50;101264.97;5087726;28;624;-71
2021/07/15 08:39:09;;;;;;;;;;;;;;;24.67;56.33;101260.09;5087585;28;1322;-71
2021/07/15 08:41:55;;;;;;;;;;;;;;;24.67;56.42;101266.28;5088157;28;635;-71
2021/07/15 08:44:41;;;;;;;;;;;;;;;24.69;56.30;101260.81;5087503;28;1354;-70
2021/07/15 08:47:27;;;;;;;;;;;;;;;24.69;56.72;101271.47;5087885;28;1909;-70
2021/07/15 08:50:13;;;;;;;;;;;;;;;24.69;55.91;101266.16;5090059;28;1363;-69
2021/07/15 08:52:59;;;;;;;;;;;;;;;24.69;56.42;101268.81;5089382;28;1284;-70
2021/07/15 08:58:48;;;;;;;;;;;;;;;24.69;57.08;101263.50;5089859;28;1267;-70
2021/07/15 09:01:34;;;;;;;;;;;;;;;24.73;57.03;101260.50;5088402;28;629;-70
2021/07/15 09:04:22;;;;;;;;;;;;;;;24.71;57.42;101250.94;5089773;28;1402;-69
2021/07/15 09:07:08;;;;;;;;;;;;;;;24.72;56.77;101253.47;5088105;28;1974;-69
2021/07/15 09:09:53;;;;;;;;;;;;;;;24.74;56.83;101256.03;5088317;28;1470;-69
2021/07/15 09:12:39;;;;;;;;;;;;;;;24.72;56.85;101257.94;5089689;28;707;-70
2021/07/15 09:15:24;;;;;;;;;;;;;;;24.71;57.66;101259.78;5088107;28;691;-70
2021/07/15 09:18:10;;;;;;;;;;;;;;;24.74;58.21;101256.88;5087936;28;1362;-70
2021/07/15 09:20:55;;;;;;;;;;;;;;;24.75;58.39;101257.72;5089269;28;723;-70
2021/07/15 09:23:40;;;;;;;;;;;;;;;24.83;58.82;101260.72;5087644;28;1373;-70
2021/07/15 09:26:30;;;;;;;;;;;;;;;24.84;58.73;101254.38;5089169;28;1902;-71
2021/07/15 09:29:16;;;;;;;;;;;;;;;24.84;58.12;101259.72;5088824;28;1201;-71
2021/07/15 09:32:02;;;;;;;;;;;;;;;24.84;58.41;101255.25;5088686;28;767;-70
2021/07/15 09:35:00;;;;;;;;;;;;;;;24.86;58.34;101257.81;5089029;28;1277;-68
2021/07/15 09:37:46;;;;;;;;;;;;;;;24.85;57.82;101250.78;5088638;28;732;-72
2021/07/15 09:40:42;;;;;;;;;;;;;;;24.86;58.17;101241.81;5088753;28;616;-70
2021/07/15 09:43:27;;;;;;;;;;;;;;;24.87;57.82;101251.50;5088496;28;1620;-71
2021/07/15 09:46:12;;;;;;;;;;;;;;;24.86;57.43;101244.50;5088358;28;1961;-71
2021/07/15 09:49:03;;;;;;;;;;;;;;;24.87;57.53;101240.84;5082604;28;1581;-71
2021/07/15 09:51:50;;;;;;;;;;;;;;;24.89;57.47;101237.13;5068416;28;703;-71
2021/07/15 09:54:37;;;;;;;;;;;;;;;24.87;56.97;101241.69;5066989;28;1348;-72
2021/07/15 09:57:26;;;;;;;;;;;;;;;24.87;56.73;101238.16;5066324;28;703;-70
2021/07/15 10:00:12;;;;;;;;;;;;;;;24.87;56.56;101241.69;5066938;28;1278;-70
2021/07/15 10:02:57;;;;;;;;;;;;;;;24.91;56.98;101231.66;5065878;28;1245;-70
2021/07/15 10:05:51;;;;;;;;;;;;;;;24.89;56.44;101223.78;5066132;28;1902;-71
2021/07/15 10:08:38;;;;;;;;;;;;;;;24.91;56.84;101229.84;5066352;28;1323;-70
2021/07/15 10:11:29;;;;;;;;;;;;;;;24.91;56.85;101229.00;5067418;28;703;-69
2021/07/15 10:14:18;;;;;;;;;;;;;;;24.92;55.16;101223.56;5067371;28;1281;-69
2021/07/15 10:17:03;;;;;;;;;;;;;;;24.94;56.46;101220.78;5066730;28;644;-70
2021/07/15 10:20:07;;;;;;;;;;;;;;;24.93;56.35;101219.91;5068068;28;1225;-70
2021/07/15 10:22:59;;;;;;;;;;;;;;;24.94;56.58;101210.09;5067552;28;1216;-69
2021/07/15 10:25:45;;;;;;;;;;;;;;;24.94;56.02;101218.09;5067476;28;664;-71
2021/07/15 10:28:38;;;;;;;;;;;;;;;24.95;55.33;101222.47;5067155;28;1299;-69
2021/07/15 10:31:24;;;;;;;;;;;;;;;24.96;54.82;101214.34;5067289;28;657;-70
2021/07/15 10:34:10;;;;;;;;;;;;;;;24.97;56.05;101216.06;5067551;28;1359;-70
2021/07/15 10:36:57;;;;;;;;;;;;;;;24.97;56.29;101215.22;5067481;28;605;-70
2021/07/15 10:39:44;;;;;;;;;;;;;;;24.96;56.25;101209.03;5067311;28;1256;-69
2021/07/15 10:42:31;;;;;;;;;;;;;;;24.97;55.37;101212.53;5067957;28;1528;-72
2021/07/15 10:45:17;;;;;;;;;;;;;;;24.98;55.34;101203.59;5067423;28;1394;-68
2021/07/15 10:48:02;;;;;;;;;;;;;;;24.99;55.49;101191.94;5067065;28;1988;-69
2021/07/15 10:50:47;;;;;;;;;;;;;;;24.99;55.74;101200.78;5067491;28;632;-70
2021/07/15 10:53:35;;;;;;;;;;;;;;;25.00;54.98;101193.66;5066651;28;1207;-70
2021/07/15 10:56:22;;;;;;;;;;;;;;;25.01;55.32;101190.03;5067338;28;687;-70
2021/07/15 10:59:31;;;;;;;;;;;;;;;25.01;55.56;101187.38;5067127;28;1264;-70
2021/07/15 11:02:24;;;;;;;;;;;;;;;25.00;55.49;101178.53;5067515;28;931;-69
2021/07/15 11:05:23;;;;;;;;;;;;;;;25.00;55.77;101183.84;5067347;28;1294;-71
2021/07/15 11:08:08;;;;;;;;;;;;;;;25.02;55.01;101180.22;5066894;28;1905;-70
2021/07/15 11:10:58;;;;;;;;;;;;;;;25.03;53.71;101182.75;5067581;28;613;-71
2021/07/15 11:13:43;;;;;;;;;;;;;;;24.98;55.23;101171.63;5067416;28;1406;-69
2021/07/15 11:16:48;;;;;;;;;;;;;;;25.03;54.92;101172.09;5067190;28;663;-69
2021/07/15 11:19:54;;;;;;;;;;;;;;;25.04;55.01;101179.13;5067336;28;1304;-69
2021/07/15 11:22:39;;;;;;;;;;;;;;;25.05;54.92;101177.31;5067293;28;651;-69
2021/07/15 11:25:27;;;;;;;;;;;;;;;25.05;54.60;101174.66;5067684;28;639;-69
2021/07/15 11:28:17;;;;;;;;;;;;;;;25.09;54.82;101168.97;5070403;28;1936;-73
2021/07/15 11:30:45;;;;;;;;;;;;;;;25.10;55.03;101175.16;5093124;28;1713;-73
2021/07/15 11:33:33;;;;;;;;;;;;;;;25.14;54.90;101168.63;5096205;28;1360;-73
2021/07/15 11:36:09;;;;;;;;;;;;;;;25.13;54.84;101167.75;5073439;28;1233;-74
2021/07/15 11:39:00;;;;;;;;;;;;;;;25.13;55.26;101174.91;5105765;28;1411;-72
2021/07/15 11:41:47;;;;;;;;;;;;;;;25.12;54.72;101166.06;5110375;28;1274;-74
2021/07/15 11:44:56;;;;;;;;;;;;;;;25.12;54.59;101160.72;5090052;28;1622;-73
2021/07/15 11:47:49;;;;;;;;;;;;;;;25.12;54.72;101160.72;5104183;28;1914;-73
2021/07/15 11:50:31;;;;;;;;;;;;;;;25.14;54.07;101163.28;5108584;28;1151;-75
2021/07/15 11:53:17;;;;;;;;;;;;;;;25.15;54.80;101160.50;5088936;28;1389;-75
2021/07/15 11:55:56;;;;;;;;;;;;;;;25.16;54.53;101162.19;5087712;28;1369;-76
2021/07/15 11:58:39;;;;;;;;;;;;;;;25.17;54.40;101155.88;5073774;28;1354;-75
2021/07/15 12:01:30;;;;;;;;;;;;;;;25.17;54.11;101147.88;5089630;28;873;-78
2021/07/15 12:04:00;;;;;;;;;;;;;;;25.17;54.35;101145.22;5099410;28;1377;-81
2021/07/15 12:06:36;;;;;;;;;;;;;;;25.19;54.65;101153.97;5108565;28;1909;-77
2021/07/15 12:09:11;;;;;;;;;;;;;;;25.19;54.51;101145.97;5108741;28;1260;-77
2021/07/15 12:11:41;;;;;;;;;;;;;;;25.20;54.37;101139.63;5110123;28;734;-80
2021/07/15 12:14:13;;;;;;;;;;;;;;;25.21;54.80;101140.50;5108172;28;1272;-77
2021/07/15 12:16:48;;;;;;;;;;;;;;;25.21;54.65;101132.50;5109508;28;853;-76
2021/07/15 12:19:21;;;;;;;;;;;;;;;25.21;54.65;101133.34;5107811;28;1379;-72
2021/07/15 12:21:48;;;;;;;;;;;;;;;25.22;54.70;101140.41;5108122;28;941;-72
2021/07/15 12:24:20;;;;;;;;;;;;;;;25.23;55.21;101131.41;5107286;28;1504;-72
2021/07/15 12:26:52;;;;;;;;;;;;;;;25.24;54.71;101137.59;5109213;28;1992;-72
2021/07/15 12:29:28;;;;;;;;;;;;;;;25.24;54.61;101130.44;5109693;28;1188;-71
2021/07/15 12:31:58;;;;;;;;;;;;;;;25.26;55.20;101130.34;5109926;27;813;-72
2021/07/15 12:34:29;;;;;;;;;;;;;;;25.21;55.09;101114.69;5107394;28;1296;-70
2021/07/15 12:37:09;;;;;;;;;;;;;;;25.28;54.94;101115.91;5103543;28;1175;-71
2021/07/15 12:39:37;;;;;;;;;;;;;;;25.28;54.52;101110.59;5067895;28;1310;-72
2021/07/15 12:42:04;;;;;;;;;;;;;;;25.28;54.89;101115.06;5069330;28;922;-70
2021/07/15 12:44:35;;;;;;;;;;;;;;;25.29;55.35;101108.78;5069786;28;1435;-70
2021/07/15 12:47:12;;;;;;;;;;;;;;;25.29;54.98;101109.59;5070110;28;1993;-72
2021/07/15 12:49:43;;;;;;;;;;;;;;;25.31;55.78;101117.50;5070972;28;1315;-72
2021/07/15 12:52:17;;;;;;;;;;;;;;;25.31;55.12;101107.69;5068993;28;1683;-72
2021/07/15 12:54:52;;;;;;;;;;;;;;;25.31;56.30;101110.34;5050331;28;1236;-71
2021/07/15 12:57:19;;;;;;;;;;;;;;;25.32;55.87;101109.34;5067931;28;803;-73
2021/07/15 12:59:55;;;;;;;;;;;;;;;25.34;55.44;101112.78;5068266;28;1296;-71
2021/07/15 13:02:31;;;;;;;;;;;;;;;25.34;55.48;101102.09;5067789;28;885;-73
2021/07/15 13:05:19;;;;;;;;;;;;;;;25.34;56.00;101101.25;5068271;28;1303;-73
2021/07/15 13:07:51;;;;;;;;;;;;;;;25.36;56.23;101102.81;5067710;28;1981;-72
2021/07/15 13:15:59;;;;;;;;;;;;;;;25.36;56.11;101097.47;5065491;28;1054;-73
2021/07/15 13:18:30;;;;;;;;;;;;;;;25.38;56.63;101092.88;5066465;28;1279;-71
2021/07/15 13:20:59;;;;;;;;;;;;;;;25.40;56.16;101096.28;5066126;28;1224;-71
2021/07/15 13:23:34;;;;;;;;;;;;;;;25.41;55.74;101102.47;5067540;28;1260;-71
2021/07/15 13:26:12;;;;;;;;;;;;;;;25.39;56.04;101102.56;5066093;28;1294;-70
2021/07/15 13:28:55;;;;;;;;;;;;;;;25.38;55.90;101098.19;5067642;28;2004;-72
2021/07/15 13:31:22;;;;;;;;;;;;;;;25.42;55.60;101093.47;5068456;28;822;-70
2021/07/15 13:33:50;;;;;;;;;;;;;;;25.41;55.24;101097.97;5067692;28;1606;-71
2021/07/15 13:36:21;;;;;;;;;;;;;;;25.43;55.00;101101.38;5067862;28;927;-70
2021/07/15 13:38:49;;;;;;;;;;;;;;;25.43;55.48;101100.50;5101718;28;1299;-69
2021/07/15 13:41:21;;;;;;;;;;;;;;;25.43;55.21;101098.72;5107906;28;833;-71
2021/07/15 13:44:05;;;;;;;;;;;;;;;25.45;55.10;101094.09;5089949;28;1441;-69
2021/07/15 13:46:38;;;;;;;;;;;;;;;25.45;54.71;101093.22;5087476;28;1977;-71
2021/07/15 13:49:20;;;;;;;;;;;;;;;25.45;54.26;101090.56;5087194;28;1303;-73
2021/07/15 13:52:01;;;;;;;;;;;;;;;25.44;54.38;101092.38;5087451;28;794;-72
2021/07/15 13:54:29;;;;;;;;;;;;;;;25.44;53.99;101095.03;5085987;28;1339;-73
2021/07/15 13:57:04;;;;;;;;;;;;;;;25.45;54.19;101082.56;5086094;28;650;-72
2021/07/15 13:59:35;;;;;;;;;;;;;;;25.44;54.27;101081.72;5085947;28;1271;-70
2021/07/15 14:02:21;;;;;;;;;;;;;;;25.44;54.46;101086.22;5087546;28;893;-72
2021/07/15 14:04:55;;;;;;;;;;;;;;;25.43;54.17;101074.69;5087603;28;1305;-74
2021/07/15 14:07:24;;;;;;;;;;;;;;;25.43;54.49;101069.38;5087420;28;1926;-72
2021/07/15 14:10:03;;;;;;;;;;;;;;;25.43;54.57;101069.38;5087337;28;1232;-70
2021/07/15 14:12:34;;;;;;;;;;;;;;;25.43;54.47;101064.03;5087072;28;1030;-71
2021/07/15 14:15:19;;;;;;;;;;;;;;;25.44;54.25;101065.72;5087294;28;1247;-72
2021/07/15 14:17:58;;;;;;;;;;;;;;;25.45;54.30;101072.75;5087073;28;826;-70
2021/07/15 14:20:49;;;;;;;;;;;;;;;25.44;54.10;101071.03;5085297;28;966;-72
2021/07/15 14:23:28;;;;;;;;;;;;;;;25.45;54.12;101067.41;5087013;28;1355;-68
2021/07/15 14:25:57;;;;;;;;;;;;;;;25.44;53.56;101065.72;5087126;28;1077;-74
2021/07/15 14:28:25;;;;;;;;;;;;;;;25.45;52.88;101061.22;5085214;28;1979;-74
2021/07/15 14:30:54;;;;;;;;;;;;;;;25.44;52.72;101055.03;5086607;28;807;-69